McFarland, WI (53558)

11:10 PM CDT on August 28, 2015 (GMT -0500)
McMadison | | Change Station
CLOSE
Current Station
Personal Weather Station
Location: Madison, WI
Elevation: 919 ft
Nearby Weather Stations

Elev 919 ft 43.03 °N, 89.28 °W | Updated 13 seconds ago

Rain
Rain
64.0 °F
Feels Like 64.0 °F
N
2.0
Wind Variable Wind from ENE
Gusts 4.9 mph

Today
High -- | Low -- °F
--% Chance of Precip.
Yesterday
High -- | Low -- °F
Precip. -- in
6:17 AM 7:39 PM
Waxing Gibbous, 99% visible
Pressure 30.04 in
Visibility 7.0 miles
Clouds Scattered Clouds 3500 ft
Mostly Cloudy 5000 ft
Overcast 5500 ft
Dew Point 63 °F
Humidity 97%
Rainfall in
Snow Depth Not available.
UV 0.0 out of 12
Pollen 3.70 out of 12
Air Quality Not available.
Flu Activity Not available.
METAR KMSN 290353Z 09009KT 7SM -RA SCT035 BKN050 OVC055 18/17 A3005 RMK AO2 SLP172 LAST AUGMENTED OBS OF THE DAY UNTIL 1045Z P0005 T01780167
Pressure 30.04 in
Visibility 7.0 miles
Clouds Scattered Clouds 3500 ft
Mostly Cloudy 5000 ft
Overcast 5500 ft
Dew Point 63 °F
Humidity 97%
Rainfall in
Snow Depth Not available.
UV 0.0 out of 12
Pollen 3.70 out of 12
Air Quality Not available.
Flu Activity Not available.
METAR KMSN 290353Z 09009KT 7SM -RA SCT035 BKN050 OVC055 18/17 A3005 RMK AO2 SLP172 LAST AUGMENTED OBS OF THE DAY UNTIL 1045Z P0005 T01780167

10-Day Weather Forecast

×

Almanac

Astronomy

Aug. 28, 2015 Rise Set
Actual Time
Civil Twilight
Nautical Twilight
Astronomical Twilight
Moon
Length of Visible Light
Length of Day
Tomorrow will be .
, % of the Moon is Illuminated

Today's Extremes

State Highs State Lows

Community

WunderPhotos

Upload Photos

1,850,611 photos uploaded!

WunderBlogs® & News

Nearby

Air Quality

  Air Quality AQ Index Pollutant
Not available.

Snow Depth

Station Depth Elevation

Earthquake Activity

City Distance Mag. Time & Date
Minimum magnitude displayed is 2.5.

Coastal Water Temperatures

Place Temperature

Stations

Nearby Weather Stations

Station Location Temp. Windchill Dew Point Humidity Wind Precip. Elev Updated Type